Time;durP1;ratioP1;P1;durP2;ratioP2;P2;SDS_P1;SDS_P2;PMS_P1;PMS_P2;Temp;Humidity;BMP_temperature;BMP_pressure;BME280_temperature;BME280_humidity;BME280_pressure;Samples;Min_cycle;Max_cycle;Signal;HPM_P1;HPM_P2
2022/04/30 00:00:58;;;;;;;8.82;6.55;;;16.30;99.90;;;;;;5099031;28;20039;-76
2022/04/30 00:03:28;;;;;;;18.67;6.15;;;16.30;99.90;;;;;;5099601;28;20442;-75
2022/04/30 00:05:56;;;;;;;9.98;6.00;;;16.20;99.90;;;;;;5088705;28;20025;-75
2022/04/30 00:08:22;;;;;;;12.10;5.50;;;16.20;99.90;;;;;;5098435;28;20111;-75
2022/04/30 00:10:48;;;;;;;9.82;6.18;;;16.20;99.90;;;;;;5087879;28;20047;-74
2022/04/30 00:13:15;;;;;;;12.65;5.90;;;16.20;99.90;;;;;;5100617;28;20429;-74
2022/04/30 00:15:41;;;;;;;9.27;5.70;;;16.20;99.90;;;;;;5091045;28;20022;-74
2022/04/30 00:18:08;;;;;;;10.13;6.00;;;16.20;99.90;;;;;;5094929;28;20387;-75
2022/04/30 00:20:38;;;;;;;13.07;5.85;;;16.20;99.90;;;;;;5100471;28;20034;-74
2022/04/30 00:23:05;;;;;;;6.28;4.93;;;16.20;99.90;;;;;;5100220;28;20031;-74
2022/04/30 00:25:31;;;;;;;9.05;5.82;;;16.20;99.90;;;;;;5100307;28;20032;-75
2022/04/30 00:27:57;;;;;;;10.68;5.28;;;16.20;99.90;;;;;;5098551;28;20518;-75
2022/04/30 00:30:23;;;;;;;8.63;5.32;;;16.10;99.90;;;;;;5098440;28;20028;-75
2022/04/30 00:32:49;;;;;;;9.60;5.20;;;16.10;99.90;;;;;;5098264;28;20114;-76
2022/04/30 00:35:15;;;;;;;8.77;5.90;;;16.10;99.90;;;;;;5099896;28;20028;-75
2022/04/30 00:37:41;;;;;;;9.88;4.70;;;16.10;99.90;;;;;;5099636;28;20424;-74
2022/04/30 00:40:08;;;;;;;8.90;4.85;;;16.10;99.90;;;;;;5098583;28;20036;-75
2022/04/30 00:42:33;;;;;;;8.48;5.10;;;16.10;99.90;;;;;;5099816;28;20012;-76
2022/04/30 00:44:59;;;;;;;9.50;4.93;;;16.00;99.90;;;;;;5098509;28;20131;-75
2022/04/30 00:47:26;;;;;;;15.00;6.20;;;16.00;99.90;;;;;;5099739;28;20028;-75
2022/04/30 00:49:53;;;;;;;7.07;4.90;;;16.00;99.90;;;;;;5100426;28;20028;-75
2022/04/30 00:52:21;;;;;;;6.70;4.90;;;16.00;99.90;;;;;;5099714;28;20098;-76
2022/04/30 00:54:49;;;;;;;6.72;4.80;;;15.90;99.90;;;;;;5100137;28;20031;-76
2022/04/30 00:57:21;;;;;;;9.38;5.40;;;15.90;99.90;;;;;;5098581;28;20051;-75
2022/04/30 00:59:59;;;;;;;8.70;5.05;;;15.90;99.90;;;;;;5098692;28;20349;-75
2022/04/30 01:02:29;;;;;;;7.32;5.20;;;15.90;99.90;;;;;;5099513;28;20081;-75
2022/04/30 01:04:59;;;;;;;9.25;5.13;;;15.90;99.90;;;;;;5098384;28;20027;-75
2022/04/30 01:07:29;;;;;;;7.53;5.47;;;15.90;99.90;;;;;;5099479;28;20107;-75
2022/04/30 01:09:55;;;;;;;7.20;5.40;;;15.80;99.90;;;;;;5099551;28;20020;-75
2022/04/30 01:12:22;;;;;;;8.30;5.05;;;15.80;99.90;;;;;;5099866;28;20020;-75
2022/04/30 01:14:49;;;;;;;9.27;5.78;;;15.80;99.90;;;;;;5098640;28;20027;-75
2022/04/30 01:17:16;;;;;;;6.20;5.05;;;15.80;99.90;;;;;;5085189;28;20032;-75
2022/04/30 01:19:43;;;;;;;8.55;5.97;;;15.70;99.90;;;;;;5090447;28;20370;-75
2022/04/30 01:22:09;;;;;;;10.55;5.05;;;15.70;99.90;;;;;;5099330;28;20044;-75
2022/04/30 01:24:36;;;;;;;7.57;4.90;;;15.70;99.90;;;;;;5099026;28;20056;-75
2022/04/30 01:27:04;;;;;;;6.63;5.00;;;15.60;99.90;;;;;;5099211;28;20028;-74
2022/04/30 01:29:32;;;;;;;7.20;5.15;;;15.60;99.90;;;;;;5098820;28;20024;-75
2022/04/30 01:37:36;;;;;;;8.70;5.63;;;15.50;99.90;;;;;;5099074;28;20053;-75
2022/04/30 01:40:09;;;;;;;8.45;5.60;;;15.50;99.90;;;;;;5098834;28;20028;-75
2022/04/30 01:42:43;;;;;;;6.55;5.32;;;15.50;99.90;;;;;;5098724;28;20024;-75
2022/04/30 01:45:10;;;;;;;11.82;6.05;;;15.50;99.90;;;;;;5098803;28;20047;-75
2022/04/30 01:47:39;;;;;;;8.18;5.28;;;15.50;99.90;;;;;;5098641;28;20024;-75
2022/04/30 01:50:06;;;;;;;8.40;5.53;;;15.40;99.90;;;;;;5098312;28;20099;-75
2022/04/30 01:52:32;;;;;;;9.60;5.38;;;15.40;99.90;;;;;;5098553;28;20225;-75
2022/04/30 01:54:59;;;;;;;7.60;5.57;;;15.40;99.90;;;;;;5098732;28;20118;-75
2022/04/30 01:57:28;;;;;;;11.23;4.82;;;15.40;99.90;;;;;;5097142;28;20511;-76
2022/04/30 01:59:55;;;;;;;10.20;5.75;;;15.40;99.90;;;;;;5097417;28;20602;-75
2022/04/30 02:02:24;;;;;;;12.15;5.43;;;15.40;99.90;;;;;;5096881;28;20509;-75
2022/04/30 02:04:55;;;;;;;11.55;5.80;;;15.40;99.90;;;;;;5097454;28;20028;-75
2022/04/30 02:07:25;;;;;;;12.82;5.40;;;15.30;99.90;;;;;;5096914;28;20119;-75
2022/04/30 02:09:51;;;;;;;9.05;5.72;;;15.30;99.90;;;;;;5097168;28;20020;-75
2022/04/30 02:12:18;;;;;;;6.85;5.55;;;15.30;99.90;;;;;;5098322;28;20020;-75
2022/04/30 02:14:55;;;;;;;7.15;5.53;;;15.30;99.90;;;;;;5096863;28;20028;-76
2022/04/30 02:17:22;;;;;;;10.90;5.07;;;15.30;99.90;;;;;;5074468;28;20031;-75
2022/04/30 02:22:38;;;;;;;9.63;5.45;;;15.20;99.90;;;;;;5089341;28;20043;-75
2022/04/30 02:25:09;;;;;;;10.10;5.07;;;15.20;99.90;;;;;;5098199;28;20085;-75
2022/04/30 02:27:42;;;;;;;12.13;5.70;;;15.20;99.90;;;;;;5098072;28;20027;-75
2022/04/30 02:30:11;;;;;;;6.72;5.43;;;15.20;99.90;;;;;;5098267;28;20515;-75
2022/04/30 02:32:46;;;;;;;10.15;5.50;;;15.20;99.90;;;;;;5097741;28;20017;-75
2022/04/30 02:35:16;;;;;;;12.35;6.80;;;15.20;99.90;;;;;;5096619;28;20115;-75
2022/04/30 02:37:44;;;;;;;16.03;6.50;;;15.10;99.90;;;;;;5097766;28;20457;-75
2022/04/30 02:40:13;;;;;;;8.88;5.93;;;15.10;99.90;;;;;;5096540;28;20027;-76
2022/04/30 02:42:44;;;;;;;10.00;5.97;;;15.10;99.90;;;;;;5097622;28;20453;-75
2022/04/30 02:45:11;;;;;;;8.15;5.88;;;15.10;99.90;;;;;;5097580;28;20431;-76
2022/04/30 02:47:39;;;;;;;14.40;6.57;;;15.10;99.90;;;;;;5097304;28;20103;-76
2022/04/30 02:50:07;;;;;;;9.18;6.20;;;15.10;99.90;;;;;;5097812;28;20020;-75
2022/04/30 02:52:33;;;;;;;8.00;5.82;;;15.10;99.90;;;;;;5097665;28;20016;-75
2022/04/30 02:54:59;;;;;;;11.50;6.05;;;15.10;99.90;;;;;;5096098;28;20119;-75
2022/04/30 02:57:24;;;;;;;15.93;7.03;;;15.00;99.90;;;;;;5096127;28;20020;-75
2022/04/30 02:59:58;;;;;;;10.85;5.90;;;15.00;99.90;;;;;;5096130;28;20031;-75
2022/04/30 03:02:24;;;;;;;8.50;6.00;;;15.00;99.90;;;;;;5096238;28;20024;-76
2022/04/30 03:04:51;;;;;;;10.07;6.15;;;15.00;99.90;;;;;;5096109;28;20055;-75
2022/04/30 03:07:22;;;;;;;11.13;5.28;;;15.00;99.90;;;;;;5095863;28;20028;-75
2022/04/30 03:09:49;;;;;;;8.18;6.35;;;15.00;99.90;;;;;;5097496;28;20016;-75
2022/04/30 03:12:16;;;;;;;8.63;6.75;;;14.90;99.90;;;;;;5095920;28;20020;-76
2022/04/30 03:14:43;;;;;;;7.30;5.53;;;14.90;99.90;;;;;;5087293;28;20024;-75
2022/04/30 03:22:39;;;;;;;10.73;7.13;;;14.80;99.90;;;;;;5097610;28;20028;-76
2022/04/30 03:25:05;;;;;;;14.65;6.63;;;14.80;99.90;;;;;;5096410;28;20024;-76
2022/04/30 03:27:32;;;;;;;11.80;6.40;;;14.70;99.90;;;;;;5097398;28;20020;-75
2022/04/30 03:29:58;;;;;;;11.98;6.57;;;14.80;99.90;;;;;;5097098;28;20104;-75
2022/04/30 03:32:24;;;;;;;8.60;6.55;;;14.70;99.90;;;;;;5097224;28;20055;-75
2022/04/30 03:34:51;;;;;;;11.65;5.80;;;14.70;99.90;;;;;;5096015;28;20020;-75
2022/04/30 03:37:18;;;;;;;11.27;6.25;;;14.70;99.90;;;;;;5097171;28;20051;-76
2022/04/30 03:39:43;;;;;;;12.63;6.55;;;14.70;99.90;;;;;;5096826;28;20476;-75
2022/04/30 03:42:09;;;;;;;11.65;6.60;;;14.70;99.90;;;;;;5095985;28;20131;-75
2022/04/30 03:44:35;;;;;;;11.95;6.53;;;14.60;99.90;;;;;;5096830;28;20114;-75
2022/04/30 03:47:01;;;;;;;7.68;6.22;;;14.60;99.90;;;;;;5096732;28;20022;-75
2022/04/30 03:49:27;;;;;;;9.55;6.88;;;14.60;99.90;;;;;;5095548;28;20119;-75
2022/04/30 03:51:54;;;;;;;11.35;6.65;;;14.60;99.90;;;;;;5095665;28;20610;-76
2022/04/30 03:54:21;;;;;;;8.18;5.70;;;14.60;99.90;;;;;;5095719;28;20035;-76
2022/04/30 03:56:46;;;;;;;12.30;6.45;;;14.50;99.90;;;;;;5095774;28;20109;-75
2022/04/30 03:59:12;;;;;;;9.50;6.85;;;14.50;99.90;;;;;;5095274;28;20036;-75
2022/04/30 04:01:38;;;;;;;10.43;7.47;;;14.50;99.90;;;;;;5095497;28;20455;-75
2022/04/30 04:04:04;;;;;;;10.63;7.13;;;14.50;99.90;;;;;;5095401;28;20028;-75
2022/04/30 04:06:31;;;;;;;9.98;6.93;;;14.50;99.90;;;;;;5096705;28;20474;-76
2022/04/30 04:08:59;;;;;;;11.57;7.18;;;14.50;99.90;;;;;;5096600;28;20035;-75
2022/04/30 04:11:26;;;;;;;8.38;7.20;;;14.50;99.90;;;;;;5096703;28;20422;-75
2022/04/30 04:19:24;;;;;;;7.85;6.50;;;14.50;99.90;;;;;;5100708;28;20404;-74
2022/04/30 04:21:50;;;;;;;9.90;6.57;;;14.40;99.90;;;;;;5098987;28;20051;-75
2022/04/30 04:27:01;;;;;;;8.38;6.72;;;14.40;99.90;;;;;;5100422;28;20093;-74
2022/04/30 04:29:27;;;;;;;9.80;5.97;;;14.40;99.90;;;;;;5100327;28;20472;-75
2022/04/30 04:31:53;;;;;;;11.02;6.82;;;14.40;99.90;;;;;;5098668;28;20016;-75
2022/04/30 04:34:19;;;;;;;12.93;7.15;;;14.40;99.90;;;;;;5098808;28;20557;-75
2022/04/30 04:36:45;;;;;;;10.50;7.20;;;14.30;99.90;;;;;;5100193;28;20024;-75
2022/04/30 04:39:13;;;;;;;12.00;6.97;;;14.30;99.90;;;;;;5098553;28;20035;-74
2022/04/30 04:41:39;;;;;;;13.05;7.78;;;14.30;99.90;;;;;;5098606;28;20442;-74
2022/04/30 04:44:05;;;;;;;14.63;7.10;;;14.30;99.90;;;;;;5099831;28;20028;-74
2022/04/30 04:46:32;;;;;;;10.23;6.60;;;14.30;99.90;;;;;;5093955;28;20070;-75
2022/04/30 04:48:58;;;;;;;9.90;7.45;;;14.30;99.90;;;;;;5098478;28;20077;-75
2022/04/30 04:51:24;;;;;;;9.40;7.07;;;14.30;99.90;;;;;;5100200;28;20066;-75
2022/04/30 04:53:50;;;;;;;11.80;8.10;;;14.20;99.90;;;;;;5099679;28;20020;-75
2022/04/30 04:56:16;;;;;;;9.52;6.50;;;14.20;99.90;;;;;;5099765;28;20079;-74
2022/04/30 04:58:42;;;;;;;10.30;7.35;;;14.30;99.90;;;;;;5098550;28;20059;-75
2022/04/30 05:01:08;;;;;;;13.00;7.65;;;14.20;99.90;;;;;;5099489;28;20028;-74
2022/04/30 05:03:33;;;;;;;9.52;6.55;;;14.20;99.90;;;;;;5099658;28;20512;-75
2022/04/30 05:05:59;;;;;;;9.68;7.53;;;14.20;99.90;;;;;;5094587;28;20441;-75
2022/04/30 05:08:25;;;;;;;16.13;8.80;;;14.20;99.90;;;;;;5092452;28;20077;-75
2022/04/30 05:10:51;;;;;;;14.52;8.57;;;14.30;99.90;;;;;;5099783;28;20096;-76
2022/04/30 05:13:17;;;;;;;16.08;8.43;;;14.20;99.90;;;;;;5098168;28;20024;-75
2022/04/30 05:15:43;;;;;;;13.90;8.80;;;14.20;99.90;;;;;;5079891;28;20017;-75
2022/04/30 05:18:09;;;;;;;16.40;7.43;;;14.20;99.90;;;;;;5081120;28;20020;-75
2022/04/30 05:20:35;;;;;;;8.45;7.05;;;14.20;99.90;;;;;;5078936;28;20024;-75
2022/04/30 05:23:01;;;;;;;9.23;7.05;;;14.20;99.90;;;;;;5079178;28;20043;-76
2022/04/30 05:25:26;;;;;;;12.30;8.25;;;14.20;99.90;;;;;;5079316;28;20473;-75
2022/04/30 05:27:52;;;;;;;13.95;8.82;;;14.20;99.90;;;;;;5080759;28;20472;-76
2022/04/30 05:30:18;;;;;;;11.10;7.10;;;14.20;99.90;;;;;;5077945;28;20423;-76
2022/04/30 05:32:44;;;;;;;11.70;7.50;;;14.20;99.90;;;;;;5077661;28;20013;-75
2022/04/30 05:35:10;;;;;;;9.00;8.07;;;14.20;99.90;;;;;;5078982;28;20035;-75
2022/04/30 05:37:36;;;;;;;10.27;7.15;;;14.20;99.90;;;;;;5079630;28;20028;-76
2022/04/30 05:40:02;;;;;;;12.90;7.75;;;14.20;99.90;;;;;;5077403;28;20032;-75
2022/04/30 05:42:28;;;;;;;13.43;7.72;;;14.20;99.90;;;;;;5079622;28;20032;-75
2022/04/30 05:44:54;;;;;;;10.07;7.75;;;14.30;99.90;;;;;;5098626;28;20044;-76
2022/04/30 05:47:20;;;;;;;8.80;7.47;;;14.30;99.90;;;;;;5084570;28;20032;-76
2022/04/30 05:49:46;;;;;;;13.90;7.82;;;14.30;99.90;;;;;;5099180;28;20013;-77
2022/04/30 05:52:12;;;;;;;12.38;8.02;;;14.30;99.90;;;;;;5098630;28;20164;-76
2022/04/30 05:54:38;;;;;;;11.02;7.90;;;14.30;99.90;;;;;;5089356;28;20048;-77
2022/04/30 05:57:04;;;;;;;12.13;7.60;;;14.30;99.90;;;;;;5090365;28;20029;-76
2022/04/30 05:59:30;;;;;;;9.55;7.82;;;14.40;99.90;;;;;;5097413;28;20028;-77
2022/04/30 06:01:56;;;;;;;14.50;8.85;;;14.40;99.90;;;;;;5085438;28;20039;-77
2022/04/30 06:04:22;;;;;;;12.52;7.22;;;14.40;99.90;;;;;;5098656;28;20020;-77
2022/04/30 06:06:48;;;;;;;10.52;7.80;;;14.40;99.90;;;;;;5078428;28;20029;-77
2022/04/30 06:09:14;;;;;;;11.07;7.72;;;14.40;99.90;;;;;;5084336;28;20032;-76
2022/04/30 06:11:41;;;;;;;10.55;7.35;;;14.40;99.90;;;;;;5085219;28;20098;-77
2022/04/30 06:14:07;;;;;;;9.93;7.07;;;14.40;99.90;;;;;;5074664;28;20044;-77
2022/04/30 06:16:33;;;;;;;14.27;7.90;;;14.30;99.90;;;;;;5077965;28;20036;-76
2022/04/30 06:18:58;;;;;;;13.38;8.57;;;14.40;99.90;;;;;;5078263;28;20028;-77
2022/04/30 06:21:24;;;;;;;9.82;6.88;;;14.40;99.90;;;;;;5092756;28;20131;-76
2022/04/30 06:23:51;;;;;;;15.20;8.07;;;14.40;99.90;;;;;;5098106;28;20046;-76
2022/04/30 06:26:16;;;;;;;9.80;6.07;;;14.40;99.90;;;;;;5094131;28;20048;-76
2022/04/30 06:28:42;;;;;;;12.27;7.47;;;14.40;99.90;;;;;;5088629;28;20089;-77
2022/04/30 06:31:08;;;;;;;13.63;7.90;;;14.40;99.90;;;;;;5079527;28;20074;-77
2022/04/30 06:33:34;;;;;;;11.07;8.35;;;14.40;99.90;;;;;;5088819;28;20617;-76
2022/04/30 06:36:00;;;;;;;9.30;8.20;;;14.50;99.90;;;;;;5077182;28;20025;-76
2022/04/30 06:38:27;;;;;;;8.68;7.20;;;14.50;99.90;;;;;;5076232;28;20052;-76
2022/04/30 06:40:52;;;;;;;11.88;7.90;;;14.60;99.90;;;;;;5092583;28;20048;-76
2022/04/30 06:43:18;;;;;;;10.02;8.02;;;14.60;99.90;;;;;;5096757;28;20027;-76
2022/04/30 06:45:44;;;;;;;13.52;8.13;;;14.60;99.90;;;;;;5085474;28;20068;-76
2022/04/30 06:48:10;;;;;;;10.52;7.53;;;14.70;99.90;;;;;;5085539;28;20020;-76
2022/04/30 06:50:36;;;;;;;10.20;7.15;;;14.70;99.90;;;;;;5096125;28;20446;-77
2022/04/30 06:58:40;;;;;;;11.65;7.88;;;14.70;99.90;;;;;;5078237;28;20035;-77
2022/04/30 07:03:55;;;;;;;15.95;9.10;;;14.80;99.90;;;;;;5080621;28;20024;-77
2022/04/30 07:06:21;;;;;;;12.93;8.50;;;14.80;99.90;;;;;;5078012;28;20024;-76
2022/04/30 07:08:47;;;;;;;11.95;8.93;;;14.90;99.90;;;;;;5074543;28;20034;-76
2022/04/30 07:11:13;;;;;;;12.50;8.85;;;14.90;99.90;;;;;;5077635;28;20040;-76
2022/04/30 07:13:38;;;;;;;11.57;8.68;;;14.90;99.90;;;;;;5078376;28;20091;-76
2022/04/30 07:16:04;;;;;;;16.13;8.45;;;14.90;99.90;;;;;;5074906;28;20051;-77
2022/04/30 07:18:30;;;;;;;12.00;9.32;;;14.90;99.90;;;;;;5076959;28;20070;-76
2022/04/30 07:20:56;;;;;;;11.13;8.55;;;15.00;99.90;;;;;;5086926;28;20028;-76
2022/04/30 07:23:22;;;;;;;12.93;8.88;;;15.00;99.90;;;;;;5093150;28;20024;-76
2022/04/30 07:25:48;;;;;;;15.57;8.70;;;15.00;99.90;;;;;;5088208;28;20035;-76
2022/04/30 07:28:14;;;;;;;13.88;9.80;;;15.10;99.90;;;;;;5093840;28;20107;-77
2022/04/30 07:30:40;;;;;;;12.85;9.52;;;15.20;99.90;;;;;;5085537;28;20052;-76
2022/04/30 07:33:06;;;;;;;14.20;10.65;;;15.20;99.90;;;;;;5094540;28;20101;-77
2022/04/30 07:35:32;;;;;;;12.40;10.30;;;15.20;99.90;;;;;;5088678;28;20480;-76
2022/04/30 07:37:58;;;;;;;11.85;9.80;;;15.20;99.90;;;;;;5079672;28;20076;-76
2022/04/30 07:40:24;;;;;;;14.45;10.43;;;15.20;99.90;;;;;;5097761;28;20029;-77
2022/04/30 07:42:50;;;;;;;16.75;11.07;;;15.20;99.90;;;;;;5082393;28;20055;-77
2022/04/30 07:45:16;;;;;;;14.82;9.88;;;15.30;99.90;;;;;;5096698;28;20036;-75
2022/04/30 07:47:42;;;;;;;12.95;10.43;;;15.40;99.90;;;;;;5097183;28;20059;-77
2022/04/30 07:50:09;;;;;;;12.18;10.25;;;15.40;99.90;;;;;;5091882;28;20024;-77
2022/04/30 07:52:35;;;;;;;14.48;10.02;;;15.40;99.90;;;;;;5091449;28;20012;-77
2022/04/30 07:55:02;;;;;;;15.63;9.73;;;15.40;99.90;;;;;;5092575;28;20031;-77
2022/04/30 07:57:28;;;;;;;15.45;10.48;;;15.50;99.90;;;;;;5099772;28;20020;-76
2022/04/30 07:59:54;;;;;;;15.23;9.68;;;15.50;99.90;;;;;;5099733;28;20024;-76
2022/04/30 08:02:20;;;;;;;14.07;10.73;;;15.40;99.90;;;;;;5086805;28;20047;-76
2022/04/30 08:04:46;;;;;;;18.40;10.63;;;15.30;99.90;;;;;;5078897;28;20460;-76
2022/04/30 08:07:12;;;;;;;16.23;13.05;;;15.30;99.90;;;;;;5097971;28;20032;-77
2022/04/30 08:09:38;;;;;;;18.33;10.40;;;15.30;99.90;;;;;;5091858;28;20028;-77
2022/04/30 08:12:04;;;;;;;16.02;12.65;;;15.30;99.90;;;;;;5098887;28;20539;-77
2022/04/30 08:14:30;;;;;;;16.85;11.20;;;15.30;99.90;;;;;;5090641;28;20020;-77
2022/04/30 08:16:56;;;;;;;19.48;11.73;;;15.30;99.90;;;;;;5086550;28;20496;-77
2022/04/30 08:19:22;;;;;;;18.15;11.75;;;15.30;99.90;;;;;;5090222;28;20028;-77
2022/04/30 08:21:48;;;;;;;15.43;11.75;;;15.50;99.90;;;;;;5097364;28;20031;-76
2022/04/30 08:24:15;;;;;;;14.20;10.38;;;15.50;99.90;;;;;;5096328;28;20012;-77
2022/04/30 08:26:42;;;;;;;14.77;12.02;;;15.60;99.90;;;;;;5097809;28;20111;-77
2022/04/30 08:29:08;;;;;;;15.88;11.80;;;15.50;99.90;;;;;;5099748;28;20031;-77
2022/04/30 08:31:34;;;;;;;14.75;11.63;;;15.40;99.90;;;;;;5085092;28;20024;-77
2022/04/30 08:34:00;;;;;;;16.38;12.38;;;15.50;99.90;;;;;;5094150;28;20016;-77
2022/04/30 08:36:25;;;;;;;17.80;12.20;;;15.50;99.90;;;;;;5081106;28;20013;-76
2022/04/30 08:38:51;;;;;;;16.27;11.65;;;15.50;99.90;;;;;;5092218;28;20024;-77
2022/04/30 08:41:17;;;;;;;20.65;12.55;;;15.60;99.90;;;;;;5095015;28;20556;-77
2022/04/30 08:43:47;;;;;;;24.55;11.73;;;15.70;99.90;;;;;;5088151;28;20029;-77
2022/04/30 08:46:13;;;;;;;18.02;11.85;;;15.80;99.90;;;;;;5083831;28;20052;-77
2022/04/30 08:48:40;;;;;;;15.98;11.07;;;15.70;99.90;;;;;;5098560;28;20028;-77
2022/04/30 08:51:06;;;;;;;15.63;12.65;;;15.60;99.90;;;;;;5098486;28;20028;-77
2022/04/30 08:53:32;;;;;;;17.58;13.10;;;15.60;99.90;;;;;;5099861;28;20094;-77
2022/04/30 08:55:58;;;;;;;18.92;12.20;;;15.70;99.90;;;;;;5099821;28;20024;-76
2022/04/30 08:58:25;;;;;;;22.27;13.32;;;15.80;99.90;;;;;;5099754;28;20048;-77
2022/04/30 09:00:51;;;;;;;15.63;12.43;;;15.90;99.90;;;;;;5093193;28;20048;-77
2022/04/30 09:03:19;;;;;;;12.75;9.60;;;15.90;99.90;;;;;;5083916;28;20078;-75
2022/04/30 09:05:45;;;;;;;24.15;13.32;;;15.90;99.90;;;;;;5098541;28;20107;-77
2022/04/30 09:08:11;;;;;;;14.60;12.25;;;15.90;99.90;;;;;;5098095;28;20064;-77
2022/04/30 09:10:38;;;;;;;18.00;11.85;;;15.90;99.90;;;;;;5097999;28;20024;-77
2022/04/30 09:13:08;;;;;;;19.23;13.00;;;16.10;99.90;;;;;;5099478;28;20047;-77
2022/04/30 09:15:34;;;;;;;;;;;16.30;99.90;;;;;;5092402;28;20484;-77
2022/04/30 09:18:02;;;;;;;22.20;12.40;;;16.40;99.90;;;;;;5092672;28;19927;-77
2022/04/30 09:20:30;;;;;;;17.58;12.95;;;16.60;99.90;;;;;;5094281;28;20137;-77
2022/04/30 09:22:56;;;;;;;18.83;12.98;;;16.70;99.90;;;;;;5092509;28;20032;-77
2022/04/30 09:25:23;;;;;;;13.13;11.30;;;16.70;99.90;;;;;;5094893;28;20114;-75
2022/04/30 09:27:54;;;;;;;17.95;12.68;;;16.90;99.90;;;;;;5078135;28;20025;-75
2022/04/30 09:30:32;;;;;;;18.98;11.43;;;16.80;99.90;;;;;;5082860;28;20050;-75
2022/04/30 09:33:04;;;;;;;19.08;11.98;;;16.80;99.90;;;;;;5093130;28;20023;-75
2022/04/30 09:38:16;;;;;;;15.50;11.25;;;17.10;99.90;;;;;;5082206;28;20035;-75
2022/04/30 09:40:54;;;;;;;21.52;13.15;;;17.20;99.90;;;;;;5077226;28;20032;-74
2022/04/30 09:43:20;;;;;;;14.20;11.55;;;17.30;99.90;;;;;;5084544;28;20031;-75
2022/04/30 09:45:46;;;;;;;23.77;12.05;;;17.30;99.90;;;;;;5098677;28;20127;-75
2022/04/30 09:53:56;;;;;;;20.40;13.70;;;17.40;99.90;;;;;;5098828;28;20035;-74
2022/04/30 09:56:44;;;;;;;20.63;11.88;;;17.30;99.90;;;;;;5097400;28;20020;-77
2022/04/30 09:59:15;;;;;;;18.42;13.13;;;17.20;99.90;;;;;;5098413;28;20020;-76
2022/04/30 10:01:42;;;;;;;19.77;11.25;;;17.50;99.90;;;;;;5088081;28;20028;-77
2022/04/30 10:04:11;;;;;;;13.00;10.27;;;17.50;99.90;;;;;;5097152;28;20359;-75
2022/04/30 10:06:59;;;;;;;16.33;11.07;;;17.20;99.90;;;;;;5098472;28;20024;-75
2022/04/30 10:09:36;;;;;;;17.23;12.52;;;17.30;99.90;;;;;;5096735;28;20582;-75
2022/04/30 10:12:05;;;;;;;17.10;11.85;;;17.40;99.90;;;;;;5094731;28;20037;-76
2022/04/30 10:14:44;;;;;;;18.27;10.25;;;17.50;99.90;;;;;;5087694;28;20434;-75
2022/04/30 10:17:17;;;;;;;16.08;10.98;;;17.60;99.90;;;;;;5064968;28;20024;-76
2022/04/30 10:19:47;;;;;;;15.77;11.35;;;17.70;99.90;;;;;;5092359;28;20502;-75
2022/04/30 10:22:17;;;;;;;15.27;12.98;;;17.70;99.90;;;;;;5098240;28;20054;-74
2022/04/30 10:24:47;;;;;;;16.08;11.40;;;17.80;99.90;;;;;;5096781;28;20039;-75
2022/04/30 10:27:14;;;;;;;15.95;11.25;;;17.80;99.90;;;;;;5095425;28;20039;-76
2022/04/30 10:29:58;;;;;;;20.02;12.65;;;18.00;99.90;;;;;;5082827;28;20100;-75
2022/04/30 10:32:29;;;;;;;15.73;10.80;;;18.20;99.90;;;;;;5089770;28;20059;-76
2022/04/30 10:34:55;;;;;;;17.63;11.40;;;18.30;99.90;;;;;;5097919;28;20396;-76
2022/04/30 10:37:36;;;;;;;18.15;10.73;;;18.30;99.90;;;;;;5098140;28;20056;-75
2022/04/30 10:40:04;;;;;;;22.35;10.77;;;18.40;99.90;;;;;;5096651;28;20032;-76
2022/04/30 10:42:48;;;;;;;14.57;11.18;;;18.40;99.90;;;;;;5096661;28;20024;-75
2022/04/30 10:45:17;;;;;;;14.20;10.82;;;18.40;99.90;;;;;;5088207;28;20075;-75
2022/04/30 10:47:53;;;;;;;16.35;11.15;;;18.50;99.90;;;;;;5084400;28;20118;-76
2022/04/30 10:50:24;;;;;;;16.75;10.93;;;18.50;99.90;;;;;;5097650;28;20044;-76
2022/04/30 10:52:54;;;;;;;18.45;11.30;;;18.70;99.90;;;;;;5097733;28;20107;-76
2022/04/30 10:55:20;;;;;;;13.88;10.88;;;18.70;99.90;;;;;;5097600;28;20032;-76
2022/04/30 10:57:47;;;;;;;15.55;10.63;;;18.90;99.90;;;;;;5097657;28;20020;-76
2022/04/30 11:00:14;;;;;;;16.85;11.40;;;19.00;99.90;;;;;;5097286;28;20020;-77
2022/04/30 11:02:40;;;;;;;13.75;10.38;;;18.90;99.90;;;;;;5077047;28;20021;-76
2022/04/30 11:05:24;;;;;;;11.07;9.05;;;19.00;99.90;;;;;;5076739;28;20025;-76
2022/04/30 11:07:50;;;;;;;12.10;9.50;;;19.00;99.90;;;;;;5076450;28;20032;-77
2022/04/30 11:10:17;;;;;;;15.55;8.75;;;18.90;99.90;;;;;;5078841;28;20055;-76
2022/04/30 11:12:44;;;;;;;12.90;9.23;;;19.10;99.90;;;;;;5075618;28;20044;-76
2022/04/30 11:15:11;;;;;;;14.20;9.25;;;19.20;99.90;;;;;;5076554;28;20013;-76
2022/04/30 11:17:45;;;;;;;20.20;9.48;;;19.20;99.90;;;;;;5076747;28;20073;-76
2022/04/30 11:20:19;;;;;;;16.15;8.18;;;19.30;99.90;;;;;;5079107;28;20103;-77
2022/04/30 11:23:02;;;;;;;13.48;8.60;;;19.20;99.90;;;;;;5076269;28;20023;-76
2022/04/30 11:25:36;;;;;;;11.60;8.20;;;18.90;99.90;;;;;;5078741;28;20361;-76
2022/04/30 11:28:10;;;;;;;12.57;8.05;;;18.90;99.90;;;;;;5077564;28;20048;-75
2022/04/30 11:30:39;;;;;;;12.05;9.32;;;19.00;99.90;;;;;;5075078;28;20021;-76
2022/04/30 11:33:06;;;;;;;13.97;7.40;;;18.90;99.90;;;;;;5078944;28;20047;-76
2022/04/30 11:35:32;;;;;;;15.77;7.57;;;19.00;99.90;;;;;;5076021;28;20270;-76
2022/04/30 11:37:58;;;;;;;11.35;7.68;;;18.90;99.90;;;;;;5075355;28;20435;-76
2022/04/30 11:40:26;;;;;;;20.35;8.63;;;19.00;99.90;;;;;;5073872;28;20031;-76
2022/04/30 11:43:02;;;;;;;12.10;7.55;;;19.00;99.90;;;;;;5075566;28;20111;-77
2022/04/30 11:45:30;;;;;;;11.38;7.57;;;19.00;99.90;;;;;;5073265;28;20123;-76
2022/04/30 11:48:00;;;;;;;8.82;7.45;;;19.00;99.90;;;;;;5072668;28;20127;-76
2022/04/30 11:50:27;;;;;;;10.63;7.33;;;18.90;99.90;;;;;;5077835;28;20021;-75
2022/04/30 11:52:54;;;;;;;12.77;8.10;;;19.10;99.90;;;;;;5076877;28;20700;-75
2022/04/30 11:55:20;;;;;;;11.52;7.72;;;19.30;99.90;;;;;;5077943;28;20388;-76
2022/04/30 11:57:47;;;;;;;11.50;6.50;;;19.50;99.90;;;;;;5077502;28;20150;-77
2022/04/30 12:00:16;;;;;;;12.60;6.80;;;19.50;99.90;;;;;;5076636;28;20029;-75
2022/04/30 12:02:45;;;;;;;13.65;6.60;;;19.60;99.90;;;;;;5075813;28;20024;-76
2022/04/30 12:05:11;;;;;;;9.48;6.40;;;19.60;99.90;;;;;;5078016;28;20036;-76
2022/04/30 12:07:45;;;;;;;7.65;5.65;;;19.70;99.90;;;;;;5075337;28;20025;-76
2022/04/30 12:10:23;;;;;;;11.45;7.13;;;19.80;99.90;;;;;;5077587;28;20017;-76
2022/04/30 12:12:51;;;;;;;11.05;7.03;;;19.80;99.90;;;;;;5085263;28;20523;-76
2022/04/30 12:15:28;;;;;;;8.95;6.32;;;19.70;99.90;;;;;;5091795;28;20020;-77
2022/04/30 12:26:51;;;;;;;8.55;6.80;;;19.80;99.90;;;;;;5096482;28;20035;-76
2022/04/30 12:29:22;;;;;;;9.10;7.47;;;20.00;99.90;;;;;;5096487;28;20486;-76
2022/04/30 12:31:51;;;;;;;11.43;7.03;;;20.20;99.90;;;;;;5088182;28;20028;-77
2022/04/30 12:34:28;;;;;;;9.25;6.72;;;20.50;99.90;;;;;;5089855;28;20076;-76
2022/04/30 12:36:57;;;;;;;7.93;6.57;;;20.60;99.90;;;;;;5094537;28;20021;-77
2022/04/30 12:39:24;;;;;;;11.27;6.68;;;20.80;99.90;;;;;;5083067;28;20032;-77
2022/04/30 12:41:52;;;;;;;10.93;6.03;;;20.80;99.90;;;;;;5099112;28;20488;-76
2022/04/30 12:44:18;;;;;;;6.63;5.30;;;20.90;99.90;;;;;;5098316;28;20051;-75
2022/04/30 12:46:45;;;;;;;7.47;5.45;;;20.90;99.90;;;;;;5098732;28;20036;-76
2022/04/30 12:49:12;;;;;;;9.93;5.57;;;20.90;99.90;;;;;;5099901;28;20028;-77
2022/04/30 12:51:42;;;;;;;8.95;6.55;;;21.10;99.90;;;;;;5100065;28;20430;-76
2022/04/30 12:54:12;;;;;;;7.10;5.57;;;21.00;99.90;;;;;;5100110;28;20027;-76
2022/04/30 12:56:39;;;;;;;13.13;5.80;;;21.00;99.90;;;;;;5100139;28;20020;-76
2022/04/30 12:59:05;;;;;;;10.13;5.22;;;21.10;99.90;;;;;;5098219;28;20120;-75
2022/04/30 13:01:33;;;;;;;7.90;5.40;;;21.10;99.90;;;;;;5090686;28;20115;-75
2022/04/30 13:03:59;;;;;;;10.63;5.03;;;21.10;99.90;;;;;;5086184;28;20017;-75
2022/04/30 13:06:24;;;;;;;8.25;4.75;;;21.10;99.90;;;;;;5090972;28;20020;-75
2022/04/30 13:14:20;;;;;;;7.50;4.90;;;21.00;99.90;;;;;;5099535;28;20028;-76
2022/04/30 13:16:46;;;;;;;10.45;5.05;;;21.00;99.90;;;;;;5085545;28;20028;-76
2022/04/30 13:19:11;;;;;;;12.18;5.30;;;21.00;98.70;;;;;;5099672;28;20024;-76
2022/04/30 13:21:38;;;;;;;7.65;5.10;;;21.10;99.10;;;;;;5099342;28;20028;-76
2022/04/30 13:24:04;;;;;;;9.90;5.28;;;21.20;99.00;;;;;;5099402;28;20030;-74
2022/04/30 13:26:31;;;;;;;9.02;4.60;;;21.20;98.00;;;;;;5097938;28;20479;-76
2022/04/30 13:28:57;;;;;;;9.10;4.60;;;21.30;98.70;;;;;;5099189;28;20426;-76
2022/04/30 13:31:23;;;;;;;7.22;4.55;;;21.50;97.40;;;;;;5098885;28;20031;-75
2022/04/30 13:33:49;;;;;;;7.95;3.97;;;21.60;97.00;;;;;;5099376;28;20004;-76